TimeMST,TemperatureF,Dew PointF,Humidity,Sea Level PressureIn,VisibilityMPH,Wind Direction,Wind SpeedMPH,Gust SpeedMPH,PrecipitationIn,Events,Conditions,WindDirDegrees,DateUTC
12:55 AM,61.0,27.0,27,30.08,10.0,North,9.2,-,N/A,,Clear,350,2013-01-09 07:55:00
1:55 AM,60.1,27.0,28,30.08,10.0,North,5.8,-,N/A,,Clear,350,2013-01-09 08:55:00
2:55 AM,55.0,28.0,35,30.08,10.0,Calm,Calm,-,N/A,,Partly Cloudy,0,2013-01-09 09:55:00
3:55 AM,57.0,27.0,32,30.08,10.0,North,5.8,-,N/A,,Partly Cloudy,360,2013-01-09 10:55:00
4:55 AM,52.0,28.0,40,30.08,10.0,North,4.6,-,N/A,,Partly Cloudy,360,2013-01-09 11:55:00
5:55 AM,48.9,28.9,46,30.10,10.0,Calm,Calm,-,N/A,,Partly Cloudy,0,2013-01-09 12:55:00
6:55 AM,48.0,28.9,48,30.12,10.0,Calm,Calm,-,N/A,,Scattered Clouds,0,2013-01-09 13:55:00
7:55 AM,53.1,26.1,35,30.14,10.0,NE,10.4,-,N/A,,Mostly Cloudy,40,2013-01-09 14:55:00
8:00 AM,-9999,-9999,N/A,-9999,-9999.0,North,-9999.0,-,N/A,,Unknown,0,2013-01-09 15:00:00
8:55 AM,55.0,27.0,34,30.15,10.0,NE,15.0,-,N/A,,Mostly Cloudy,40,2013-01-09 15:55:00
9:55 AM,59.0,28.0,31,30.15,10.0,NNE,10.4,-,N/A,,Mostly Cloudy,30,2013-01-09 16:55:00
10:55 AM,63.0,27.0,26,30.16,10.0,NE,11.5,-,N/A,,Mostly Cloudy,40,2013-01-09 17:55:00
11:55 AM,66.0,26.1,22,30.12,7.0,NNE,11.5,-,N/A,,Mostly Cloudy,30,2013-01-09 18:55:00
12:55 PM,69.1,27.0,21,30.08,-9999.0,NE,8.1,-,N/A,,Mostly Cloudy,40,2013-01-09 19:55:00
1:55 PM,72.0,24.1,17,30.05,7.0,NE,9.2,-,N/A,,Mostly Cloudy,50,2013-01-09 20:55:00
2:55 PM,73.0,23.0,15,30.04,10.0,East,8.1,-,N/A,,Mostly Cloudy,80,2013-01-09 21:55:00
3:55 PM,72.0,21.0,15,30.03,10.0,ENE,6.9,-,N/A,,Mostly Cloudy,60,2013-01-09 22:55:00
4:55 PM,71.1,23.0,16,30.01,10.0,NE,4.6,-,N/A,,Mostly Cloudy,50,2013-01-09 23:55:00
5:55 PM,68.0,26.1,21,30.00,10.0,NNE,5.8,-,N/A,,Mostly Cloudy,30,2013-01-10 00:55:00
6:55 PM,63.0,28.0,27,29.99,10.0,ENE,4.6,-,N/A,,Mostly Cloudy,70,2013-01-10 01:55:00
7:55 PM,57.9,30.0,35,29.98,10.0,Calm,Calm,-,N/A,,Mostly Cloudy,0,2013-01-10 02:55:00
8:55 PM,55.9,30.9,39,29.98,10.0,ESE,3.5,-,N/A,,Scattered Clouds,120,2013-01-10 03:55:00
9:55 PM,55.0,28.0,35,29.98,10.0,Calm,Calm,-,N/A,,Scattered Clouds,0,2013-01-10 04:55:00
10:55 PM,52.0,27.0,38,29.97,10.0,SSE,5.8,-,N/A,,Scattered Clouds,150,2013-01-10 05:55:00
11:55 PM,51.1,28.0,41,29.96,10.0,SSE,9.2,-,N/A,,Mostly Cloudy,160,2013-01-10 06:55:00